createdAt,value
2019-02-28T00:01:03.179Z,19.33
2019-02-28T00:03:32.440Z,11.20
2019-02-28T00:06:01.700Z,13.23
2019-02-28T00:08:30.973Z,17.67
2019-02-28T00:11:02.047Z,17.93
2019-02-28T00:13:31.205Z,12.53
2019-02-28T00:16:03.439Z,12.07
2019-02-28T00:18:31.454Z,18.37
2019-02-28T00:21:06.089Z,14.57
2019-02-28T00:23:31.686Z,13.10
2019-02-28T00:26:00.951Z,9.93
2019-02-28T00:28:30.230Z,12.20
2019-02-28T00:30:59.488Z,11.77
2019-02-28T00:33:30.814Z,12.40
2019-02-28T00:35:59.727Z,15.43
2019-02-28T00:38:29.829Z,16.33
2019-02-28T00:40:59.699Z,14.13
2019-02-28T00:43:28.972Z,13.07
2019-02-28T00:45:58.248Z,12.30
2019-02-28T00:48:27.512Z,13.63
2019-02-28T00:50:58.503Z,14.00
2019-02-28T00:53:27.751Z,12.73
2019-02-28T00:55:57.020Z,12.63
2019-02-28T00:58:28.860Z,13.00
2019-02-28T01:00:57.260Z,20.93
2019-02-28T01:03:27.508Z,19.80
2019-02-28T01:05:56.973Z,14.87
2019-02-28T01:08:27.305Z,15.17
2019-02-28T01:10:56.574Z,13.07
2019-02-28T01:13:28.013Z,17.37
2019-02-28T01:15:56.812Z,13.63
2019-02-28T01:18:26.071Z,12.73
2019-02-28T01:20:55.355Z,13.10
2019-02-28T01:23:24.608Z,12.93
2019-02-28T01:25:53.891Z,12.03
2019-02-28T01:28:23.368Z,18.47
2019-02-28T01:30:54.406Z,18.07
2019-02-28T01:33:24.888Z,16.23
2019-02-28T01:35:54.632Z,13.40
2019-02-28T01:38:24.170Z,21.57
2019-02-28T01:40:55.520Z,14.10
2019-02-28T01:43:28.329Z,18.57
2019-02-28T01:45:55.753Z,14.93
2019-02-28T01:48:25.025Z,15.13
2019-02-28T01:50:54.289Z,17.77
2019-02-28T01:53:23.553Z,20.83
2019-02-28T01:55:52.823Z,19.60
2019-02-28T01:58:22.085Z,16.83
2019-02-28T02:00:51.352Z,11.73
2019-02-28T02:03:20.621Z,19.17
2019-02-28T02:05:51.710Z,18.63
2019-02-28T02:08:20.852Z,14.10
2019-02-28T02:10:54.872Z,27.67
2019-02-28T02:13:22.157Z,18.93
2019-02-28T02:15:52.109Z,15.33
2019-02-28T02:18:22.444Z,19.90
2019-02-28T02:20:51.722Z,15.87
2019-02-28T02:23:20.997Z,18.30
2019-02-28T02:25:50.264Z,14.13
2019-02-28T02:28:19.531Z,13.37
2019-02-28T02:30:50.987Z,16.33
2019-02-28T02:33:19.862Z,15.07
2019-02-28T02:35:49.208Z,15.23
2019-02-28T02:38:18.534Z,15.53
2019-02-28T02:40:47.796Z,18.70
2019-02-28T02:43:17.068Z,17.43
2019-02-28T02:45:46.506Z,14.77
2019-02-28T02:48:15.781Z,14.50
2019-02-28T02:50:45.053Z,13.50
2019-02-28T02:53:14.325Z,16.43
2019-02-28T02:55:43.590Z,18.17
2019-02-28T02:58:12.862Z,14.70
2019-02-28T03:00:42.129Z,17.47
2019-02-28T03:03:11.392Z,19.00
2019-02-28T03:05:40.659Z,22.83
2019-02-28T03:08:09.927Z,20.47
2019-02-28T03:10:39.186Z,16.20
2019-02-28T03:13:08.456Z,19.33
2019-02-28T03:15:37.793Z,19.73
2019-02-28T03:18:07.078Z,17.87
2019-02-28T03:20:36.346Z,21.57
2019-02-28T03:23:05.615Z,28.03
2019-02-28T03:25:34.876Z,20.10
2019-02-28T03:28:04.145Z,21.03
2019-02-28T03:30:33.886Z,16.23
2019-02-28T03:33:03.532Z,19.33
2019-02-28T03:35:41.447Z,17.50
2019-02-28T03:38:10.187Z,17.67
2019-02-28T03:40:39.818Z,20.20
2019-02-28T03:43:06.964Z,23.73
2019-02-28T03:45:36.535Z,24.67
2019-02-28T03:48:05.848Z,23.70
2019-02-28T03:50:35.108Z,16.20
2019-02-28T03:53:04.381Z,18.07
2019-02-28T03:55:40.315Z,16.47
2019-02-28T03:58:05.827Z,23.37
2019-02-28T04:00:36.370Z,21.93
2019-02-28T04:03:05.645Z,22.30
2019-02-28T04:05:36.049Z,16.93
2019-02-28T04:08:05.322Z,22.83
2019-02-28T04:10:34.587Z,18.67
2019-02-28T04:13:03.928Z,27.80
2019-02-28T04:15:33.193Z,20.30
2019-02-28T04:18:07.091Z,20.67
2019-02-28T04:20:37.511Z,24.43
2019-02-28T04:23:04.430Z,25.97
2019-02-28T04:25:33.697Z,24.07
2019-02-28T04:28:02.980Z,22.23
2019-02-28T04:30:34.014Z,20.50
2019-02-28T04:33:03.283Z,20.17
2019-02-28T04:35:32.551Z,27.73
2019-02-28T04:38:01.824Z,30.07
2019-02-28T04:40:32.060Z,22.20
2019-02-28T04:43:01.328Z,29.10
2019-02-28T04:45:30.595Z,24.23
2019-02-28T04:48:00.946Z,24.97
2019-02-28T04:50:32.049Z,22.50
2019-02-28T04:53:01.192Z,28.03
2019-02-28T04:55:34.226Z,28.57
2019-02-28T04:58:02.778Z,26.03
2019-02-28T05:00:32.043Z,24.93
2019-02-28T05:03:01.318Z,31.67
2019-02-28T05:05:30.587Z,22.10
2019-02-28T05:08:04.690Z,29.07
2019-02-28T05:10:30.829Z,28.27
2019-02-28T05:13:00.097Z,30.30
2019-02-28T05:15:29.382Z,26.40
2019-02-28T05:17:58.660Z,30.17
2019-02-28T05:20:27.938Z,34.10
2019-02-28T05:23:01.716Z,30.83
2019-02-28T05:25:28.183Z,30.70
2019-02-28T05:27:57.457Z,27.87
2019-02-28T05:30:26.728Z,28.80
2019-02-28T05:32:56.000Z,25.87
2019-02-28T05:35:26.573Z,30.77
2019-02-28T05:37:56.121Z,29.47
2019-02-28T05:40:25.400Z,30.73
2019-02-28T05:42:58.278Z,34.47
2019-02-28T05:45:26.622Z,29.30
2019-02-28T05:47:55.892Z,25.40
2019-02-28T05:50:25.168Z,33.20
2019-02-28T05:52:54.509Z,29.47
2019-02-28T05:55:25.704Z,37.57
2019-02-28T05:57:54.747Z,29.80
2019-02-28T06:00:25.097Z,31.83
2019-02-28T06:02:57.824Z,32.90
2019-02-28T06:05:25.332Z,29.07
2019-02-28T06:07:54.604Z,39.80
2019-02-28T06:10:24.894Z,30.03
2019-02-28T06:12:54.251Z,29.60
2019-02-28T06:15:23.519Z,37.27
2019-02-28T06:17:55.033Z,33.77
2019-02-28T06:20:23.758Z,33.00
2019-02-28T06:22:53.052Z,31.97
2019-02-28T06:25:24.975Z,41.07
2019-02-28T06:27:53.286Z,34.23
2019-02-28T06:30:22.568Z,48.63
2019-02-28T06:32:51.850Z,42.20
2019-02-28T06:35:21.121Z,43.07
2019-02-28T06:37:50.393Z,39.53
2019-02-28T06:40:20.741Z,45.27
2019-02-28T06:42:50.013Z,43.43
2019-02-28T06:45:20.026Z,47.90
2019-02-28T06:47:50.110Z,49.30
2019-02-28T06:50:19.733Z,45.17
2019-02-28T06:52:48.996Z,45.83
2019-02-28T06:55:19.917Z,50.83
2019-02-28T06:57:49.181Z,48.67
2019-02-28T07:00:18.628Z,49.57
2019-02-28T07:02:49.982Z,54.93
2019-02-28T07:05:24.733Z,46.13
2019-02-28T07:07:50.056Z,46.33
2019-02-28T07:10:19.755Z,45.13
2019-02-28T07:12:49.052Z,46.33
2019-02-28T07:15:23.707Z,43.83
2019-02-28T07:17:49.312Z,47.20
2019-02-28T07:20:19.708Z,43.80
2019-02-28T07:22:54.601Z,53.97
2019-02-28T07:25:19.939Z,52.07
2019-02-28T07:27:49.230Z,63.17
2019-02-28T07:30:20.505Z,56.63
2019-02-28T07:32:49.804Z,51.90
2019-02-28T07:35:19.066Z,57.73
2019-02-28T07:37:53.208Z,66.63
2019-02-28T07:40:20.383Z,95.07
2019-02-28T07:42:49.664Z,71.73
2019-02-28T07:45:19.901Z,60.67
2019-02-28T07:47:52.776Z,56.63
2019-02-28T07:50:20.223Z,62.40
2019-02-28T07:52:49.496Z,66.93
2019-02-28T07:55:21.711Z,55.80
2019-02-28T07:57:53.215Z,59.80
2019-02-28T08:00:23.248Z,57.33
2019-02-28T08:02:52.591Z,55.77
2019-02-28T08:05:22.819Z,53.97
2019-02-28T08:07:52.743Z,58.10
2019-02-28T08:10:29.828Z,67.83
2019-02-28T08:12:59.159Z,63.83
2019-02-28T08:15:29.361Z,63.90
2019-02-28T08:17:58.640Z,60.63
2019-02-28T08:20:30.679Z,62.70
2019-02-28T08:22:58.897Z,56.77
2019-02-28T08:25:28.165Z,67.67
2019-02-28T08:27:59.795Z,71.67
2019-02-28T08:30:33.084Z,64.53
2019-02-28T08:33:02.437Z,61.70
2019-02-28T08:35:34.828Z,76.00
2019-02-28T08:38:02.679Z,67.07
2019-02-28T08:40:32.839Z,70.47
2019-02-28T08:43:02.114Z,68.87
2019-02-28T08:45:33.406Z,75.73
2019-02-28T08:48:02.360Z,64.00
2019-02-28T08:50:31.627Z,74.43
2019-02-28T08:53:03.414Z,74.13
2019-02-28T08:55:32.953Z,69.93
2019-02-28T08:58:06.147Z,76.13
2019-02-28T09:00:33.462Z,77.77
2019-02-28T09:03:02.859Z,74.57
2019-02-28T09:05:33.197Z,79.13
2019-02-28T09:08:02.550Z,68.10
2019-02-28T09:10:31.821Z,80.63
2019-02-28T09:13:02.171Z,74.40
2019-02-28T09:15:31.464Z,81.10
2019-02-28T09:18:00.732Z,82.77
2019-02-28T09:20:29.977Z,88.27
2019-02-28T09:23:02.126Z,79.40
2019-02-28T09:25:31.194Z,74.57
2019-02-28T09:28:00.466Z,76.53
2019-02-28T09:30:45.686Z,73.93
2019-02-28T09:33:14.961Z,82.03
2019-02-28T09:35:46.329Z,81.67
2019-02-28T09:38:15.285Z,73.37
2019-02-28T09:40:44.561Z,72.53
2019-02-28T09:43:13.841Z,72.57
2019-02-28T09:45:43.178Z,74.83
2019-02-28T09:48:12.477Z,97.23
2019-02-28T09:50:41.745Z,83.50
2019-02-28T09:53:15.495Z,80.57
2019-02-28T09:55:42.019Z,89.70
2019-02-28T09:58:11.289Z,86.07
2019-02-28T10:00:43.331Z,78.43
2019-02-28T10:03:11.607Z,75.77
2019-02-28T10:05:42.406Z,80.90
2019-02-28T10:08:11.873Z,74.57
2019-02-28T10:10:41.152Z,80.07
2019-02-28T10:13:10.436Z,79.27
2019-02-28T10:15:41.717Z,80.90
2019-02-28T10:18:10.698Z,81.33
2019-02-28T10:20:40.923Z,81.77
2019-02-28T10:23:10.222Z,84.43
2019-02-28T10:25:43.252Z,80.97
2019-02-28T10:28:10.500Z,92.40
2019-02-28T10:30:39.772Z,84.07
2019-02-28T10:33:09.046Z,97.77
2019-02-28T10:35:38.338Z,115.10
2019-02-28T10:38:07.615Z,83.03
2019-02-28T10:40:36.909Z,87.17
2019-02-28T10:43:06.187Z,91.30
2019-02-28T10:45:41.131Z,97.50
2019-02-28T10:48:06.440Z,93.87
2019-02-28T10:50:37.576Z,91.67
2019-02-28T10:53:06.928Z,96.30
2019-02-28T10:55:36.217Z,88.57
2019-02-28T10:58:05.564Z,87.87
2019-02-28T11:00:38.467Z,98.97
2019-02-28T11:03:07.813Z,86.57
2019-02-28T11:05:41.654Z,87.83
2019-02-28T11:08:17.388Z,93.73
2019-02-28T11:10:47.057Z,101.03
2019-02-28T11:13:19.421Z,92.70
2019-02-28T11:15:49.547Z,87.00
2019-02-28T11:18:18.807Z,88.00
2019-02-28T11:20:48.103Z,78.77
2019-02-28T11:23:17.716Z,87.93
2019-02-28T11:25:47.072Z,69.73
2019-02-28T11:28:16.351Z,73.77
2019-02-28T11:30:46.684Z,70.43
2019-02-28T11:33:17.493Z,68.70
2019-02-28T11:35:46.807Z,72.17
2019-02-28T11:38:20.506Z,75.87
2019-02-28T11:40:47.289Z,72.17
2019-02-28T11:43:16.635Z,79.83
2019-02-28T11:45:48.991Z,74.63
2019-02-28T11:48:26.747Z,76.53
2019-02-28T11:50:57.087Z,83.67
2019-02-28T11:53:26.355Z,72.93
2019-02-28T11:55:55.645Z,82.27
2019-02-28T11:58:24.943Z,81.10
2019-02-28T12:00:55.884Z,80.67
2019-02-28T12:03:25.171Z,72.93
2019-02-28T12:05:54.480Z,71.27
2019-02-28T12:08:23.740Z,77.10
2019-02-28T12:10:53.024Z,75.63
2019-02-28T12:13:22.321Z,82.57
2019-02-28T12:15:51.681Z,68.77
2019-02-28T12:18:22.035Z,69.90
2019-02-28T12:20:51.544Z,85.63
2019-02-28T12:23:23.425Z,72.43
2019-02-28T12:25:51.815Z,74.70
2019-02-28T12:28:21.098Z,66.73
2019-02-28T12:30:50.375Z,69.80
2019-02-28T12:33:23.146Z,68.57
2019-02-28T12:35:50.644Z,68.00
2019-02-28T12:38:19.939Z,79.70
2019-02-28T12:40:49.566Z,90.80
2019-02-28T12:43:18.988Z,93.70
2019-02-28T12:45:49.341Z,85.43
2019-02-28T12:48:19.706Z,80.23
2019-02-28T12:50:48.986Z,82.47
2019-02-28T12:53:18.280Z,100.30
2019-02-28T12:55:47.558Z,100.23
2019-02-28T12:58:16.853Z,106.23
2019-02-28T13:00:46.593Z,105.20
2019-02-28T13:03:19.801Z,113.87
2019-02-28T13:05:49.290Z,117.07
2019-02-28T13:08:19.121Z,103.90
2019-02-28T13:10:48.474Z,119.53
2019-02-28T13:13:21.682Z,127.77
2019-02-28T13:15:49.339Z,127.57
2019-02-28T13:18:18.835Z,105.80
2019-02-28T13:20:48.120Z,117.00
2019-02-28T13:23:17.415Z,110.37
2019-02-28T13:25:46.699Z,107.60
2019-02-28T13:28:17.780Z,129.20
2019-02-28T13:30:50.563Z,193.47
2019-02-28T13:33:17.973Z,159.70
2019-02-28T13:35:47.854Z,136.47
2019-02-28T13:38:19.069Z,116.83
2019-02-28T13:40:48.411Z,113.00
2019-02-28T13:43:20.964Z,121.63
2019-02-28T13:45:50.584Z,119.80
2019-02-28T13:48:26.070Z,118.67
2019-02-28T13:50:50.644Z,99.37
2019-02-28T13:53:19.935Z,108.83
2019-02-28T13:55:53.051Z,102.00
2019-02-28T13:58:21.575Z,91.47
2019-02-28T14:00:51.284Z,86.67
2019-02-28T14:03:20.634Z,93.47
2019-02-28T14:05:49.983Z,91.00
2019-02-28T14:08:19.272Z,90.60
2019-02-28T14:10:48.707Z,92.70
2019-02-28T14:13:18.001Z,88.27
2019-02-28T14:15:52.646Z,86.23
2019-02-28T14:18:20.484Z,87.83
2019-02-28T14:20:49.761Z,87.90
2019-02-28T14:23:20.874Z,85.43
2019-02-28T14:25:50.026Z,87.50
2019-02-28T14:28:19.567Z,75.50
2019-02-28T14:30:48.859Z,73.13
2019-02-28T14:33:19.410Z,69.27
2019-02-28T14:35:49.331Z,60.10
2019-02-28T14:38:18.609Z,62.60
2019-02-28T14:40:49.652Z,65.87
2019-02-28T14:43:19.654Z,63.70
2019-02-28T14:45:49.828Z,53.77
2019-02-28T14:48:19.109Z,70.87
2019-02-28T14:50:50.577Z,59.13
2019-02-28T14:53:19.364Z,61.43
2019-02-28T14:55:48.659Z,55.20
2019-02-28T14:58:21.241Z,49.83
2019-02-28T15:00:49.020Z,41.57
2019-02-28T15:03:18.296Z,52.33
2019-02-28T15:05:47.576Z,42.73
2019-02-28T15:08:16.845Z,48.23
2019-02-28T15:14:34.017Z,44.10
2019-02-28T15:17:06.945Z,45.03
2019-02-28T15:19:34.263Z,45.67
2019-02-28T15:22:03.541Z,39.33
2019-02-28T15:24:32.824Z,44.47
2019-02-28T15:27:04.176Z,36.47
2019-02-28T15:29:33.087Z,42.60
2019-02-28T15:32:02.367Z,34.73
2019-02-28T15:34:31.641Z,38.73
2019-02-28T15:37:01.024Z,36.13
2019-02-28T15:39:30.296Z,36.73
2019-02-28T15:41:59.576Z,40.70
2019-02-28T15:44:29.359Z,33.17
2019-02-28T15:46:59.413Z,35.37
2019-02-28T15:49:28.683Z,30.37
2019-02-28T15:51:57.971Z,33.57
2019-02-28T15:54:27.250Z,33.93
2019-02-28T15:56:56.547Z,29.13
2019-02-28T15:59:25.817Z,36.50
2019-02-28T16:01:55.107Z,35.20
2019-02-28T16:04:26.308Z,32.70
2019-02-28T16:06:57.899Z,31.03
2019-02-28T16:09:26.334Z,32.30
2019-02-28T16:11:55.628Z,35.60
2019-02-28T16:14:24.901Z,31.13
2019-02-28T16:16:56.838Z,35.57
2019-02-28T16:19:26.132Z,31.33
2019-02-28T16:21:55.416Z,29.43
2019-02-28T16:24:24.703Z,27.50
2019-02-28T16:26:56.816Z,26.33
2019-02-28T16:29:24.952Z,32.03
2019-02-28T16:31:54.244Z,27.70
2019-02-28T16:34:23.526Z,38.73
2019-02-28T16:36:52.820Z,25.03
2019-02-28T16:39:22.091Z,38.00
2019-02-28T16:41:51.368Z,27.97
2019-02-28T16:44:20.657Z,25.93
2019-02-28T16:46:50.857Z,22.17
2019-02-28T16:49:20.192Z,21.07
2019-02-28T16:51:49.478Z,25.70
2019-02-28T16:54:19.415Z,25.27
2019-02-28T16:56:49.738Z,32.77
2019-02-28T16:59:19.016Z,46.37
2019-02-28T17:01:51.275Z,30.37
2019-02-28T17:04:19.283Z,25.63
2019-02-28T17:06:48.577Z,27.20
2019-02-28T17:09:19.496Z,31.53
2019-02-28T17:11:51.192Z,26.50
2019-02-28T17:14:21.370Z,32.43
2019-02-28T17:16:52.298Z,33.03
2019-02-28T17:19:21.561Z,25.37
2019-02-28T17:21:52.483Z,26.67
2019-02-28T17:24:21.883Z,25.47
2019-02-28T17:26:52.815Z,25.60
2019-02-28T17:29:25.175Z,29.13
2019-02-28T17:31:54.708Z,25.43
2019-02-28T17:34:24.285Z,39.07
2019-02-28T17:36:54.444Z,30.03
2019-02-28T17:39:23.868Z,22.60
2019-02-28T17:41:53.141Z,23.33
2019-02-28T17:44:28.171Z,26.23
2019-02-28T17:47:06.098Z,29.00
2019-02-28T17:50:05.619Z,28.23
2019-02-28T17:52:45.048Z,26.70
2019-02-28T17:55:38.376Z,28.23
2019-02-28T17:58:10.740Z,32.00
2019-02-28T18:00:52.905Z,50.50
2019-02-28T18:03:37.084Z,35.33
2019-02-28T18:06:29.330Z,28.07
2019-02-28T18:09:12.725Z,23.93
2019-02-28T18:11:50.669Z,36.00
2019-02-28T18:14:23.028Z,32.47
2019-02-28T18:17:27.068Z,26.93
2019-02-28T18:20:08.093Z,33.60
2019-02-28T18:22:43.152Z,25.63
2019-02-28T18:25:26.879Z,37.13
2019-02-28T18:28:02.376Z,34.63
2019-02-28T18:30:51.422Z,35.70
2019-02-28T18:33:20.713Z,31.87
2019-02-28T18:35:51.043Z,25.47
2019-02-28T18:38:20.317Z,35.17
2019-02-28T18:40:49.593Z,31.53
2019-02-28T18:43:18.885Z,33.47
2019-02-28T18:45:48.339Z,31.90
2019-02-28T18:48:18.655Z,36.50
2019-02-28T18:50:48.104Z,33.57
2019-02-28T18:53:17.364Z,32.50
2019-02-28T18:55:46.659Z,31.47
2019-02-28T18:58:15.949Z,27.53
2019-02-28T19:00:45.394Z,31.30
2019-02-28T19:03:14.669Z,30.40
2019-02-28T19:05:43.952Z,33.50
2019-02-28T19:08:13.240Z,26.93
2019-02-28T19:10:42.524Z,33.43
2019-02-28T19:13:11.864Z,25.10
2019-02-28T19:15:41.229Z,30.60
2019-02-28T19:18:10.504Z,29.00
2019-02-28T19:20:39.795Z,30.37
2019-02-28T19:23:09.064Z,38.77
2019-02-28T19:25:38.352Z,41.73
2019-02-28T19:28:07.628Z,28.83
2019-02-28T19:30:37.084Z,31.47
2019-02-28T19:33:06.368Z,34.03
2019-02-28T19:35:35.657Z,30.40
2019-02-28T19:38:05.239Z,28.17
2019-02-28T19:40:34.590Z,30.70
2019-02-28T19:43:04.950Z,34.97
2019-02-28T19:45:40.875Z,36.33
2019-02-28T19:48:10.192Z,41.80
2019-02-28T19:50:39.486Z,34.57
2019-02-28T19:53:08.765Z,38.63
2019-02-28T19:55:38.115Z,40.23
2019-02-28T19:58:07.424Z,45.70
2019-02-28T20:00:36.820Z,55.10
2019-02-28T20:03:06.115Z,53.30
2019-02-28T20:05:35.466Z,55.57
2019-02-28T20:08:05.897Z,45.03
2019-02-28T20:10:35.412Z,41.30
2019-02-28T20:13:05.973Z,58.80
2019-02-28T20:15:36.965Z,48.03
2019-02-28T20:18:06.242Z,43.00
2019-02-28T20:20:35.517Z,45.27
2019-02-28T20:23:04.960Z,48.37
2019-02-28T20:25:34.259Z,46.80
2019-02-28T20:28:03.637Z,44.63
2019-02-28T20:30:32.916Z,38.83
2019-02-28T20:33:02.200Z,43.67
2019-02-28T20:35:31.627Z,42.60
2019-02-28T20:38:00.941Z,48.93
2019-02-28T20:40:32.653Z,35.10
2019-02-28T20:43:01.983Z,33.97
2019-02-28T20:45:32.150Z,40.77
2019-02-28T20:48:01.460Z,36.10
2019-02-28T20:50:34.923Z,33.03
2019-02-28T20:53:05.377Z,34.37
2019-02-28T20:55:34.918Z,34.80
2019-02-28T20:58:04.412Z,43.30
2019-02-28T21:00:34.761Z,41.17
2019-02-28T21:03:04.113Z,38.57
2019-02-28T21:05:33.456Z,37.03
2019-02-28T21:08:02.745Z,45.53
2019-02-28T21:10:32.196Z,42.53
2019-02-28T21:13:01.565Z,44.03
2019-02-28T21:15:30.981Z,45.87
2019-02-28T21:18:00.272Z,48.23
2019-02-28T21:20:29.615Z,43.77
2019-02-28T21:22:58.907Z,45.43
2019-02-28T21:25:28.184Z,45.83
2019-02-28T21:27:57.457Z,49.23
2019-02-28T21:30:27.785Z,47.23
2019-02-28T21:32:57.118Z,48.93
2019-02-28T21:35:26.839Z,47.17
2019-02-28T21:37:56.193Z,40.43
2019-02-28T21:40:25.599Z,48.03
2019-02-28T21:42:54.890Z,47.07
2019-02-28T21:45:25.411Z,39.33
2019-02-28T21:47:54.945Z,42.43
2019-02-28T21:50:24.269Z,37.73
2019-02-28T21:52:54.530Z,38.10
2019-02-28T21:55:23.813Z,41.20
2019-02-28T21:57:53.172Z,35.20
2019-02-28T22:00:27.721Z,43.93
2019-02-28T22:02:56.984Z,44.97
2019-02-28T22:05:26.337Z,34.13
2019-02-28T22:07:55.611Z,40.03
2019-02-28T22:10:24.904Z,35.10
2019-02-28T22:12:54.189Z,37.13
2019-02-28T22:15:26.568Z,40.30
2019-02-28T22:17:55.838Z,44.67
2019-02-28T22:20:25.148Z,26.53
2019-02-28T22:22:54.723Z,31.03
2019-02-28T22:25:24.026Z,31.73
2019-02-28T22:27:53.293Z,33.90
2019-02-28T22:30:33.552Z,26.93
2019-02-28T22:33:16.292Z,26.10
2019-02-28T22:35:53.079Z,24.13
2019-02-28T22:38:22.356Z,31.60
2019-02-28T22:40:51.733Z,28.30
2019-02-28T22:43:21.001Z,23.57
2019-02-28T22:45:50.284Z,25.40
2019-02-28T22:48:19.549Z,26.40
2019-02-28T22:50:48.845Z,24.57
2019-02-28T22:53:18.107Z,24.63
2019-02-28T22:55:47.386Z,18.80
2019-02-28T22:58:16.656Z,23.33
2019-02-28T23:01:05.824Z,26.00
2019-02-28T23:03:36.298Z,21.73
2019-02-28T23:06:06.217Z,25.57
2019-02-28T23:08:35.485Z,19.20
2019-02-28T23:11:04.824Z,17.40
2019-02-28T23:13:34.091Z,14.77
2019-02-28T23:16:05.321Z,22.63
2019-02-28T23:18:34.596Z,15.33
2019-02-28T23:21:03.892Z,21.13
2019-02-28T23:23:33.144Z,17.13
2019-02-28T23:26:10.464Z,18.23
2019-02-28T23:28:48.560Z,21.33
2019-02-28T23:31:40.688Z,20.73
2019-02-28T23:34:13.037Z,17.73
2019-02-28T23:36:42.303Z,18.70
2019-02-28T23:39:11.585Z,16.17
2019-02-28T23:41:41.017Z,18.90
2019-02-28T23:44:10.282Z,20.67
2019-02-28T23:46:39.555Z,18.53
2019-02-28T23:49:08.815Z,17.00
2019-02-28T23:51:38.095Z,19.87
2019-02-28T23:54:07.358Z,17.17
2019-02-28T23:56:36.627Z,17.03
2019-02-28T23:59:05.892Z,17.20
